Decoded Metar for KLRY ( in ) (IATA:) | Meteo·Mobile Aviation Weather
aviador You're here:

KLRY Decoded Metar

in
Report Time2018-11-19 09:55:00
UTC Time2018-11-19 10:05:54
Flight Rules mvfr MVFR
Wind270° at 03 kt
W.Decomp.*RWY 35: 0.5 kt HW 3 kt LCW
W.Rank270° ranks 35
Current wind is below 270° avg. (6.8)
Visibility9999 m
Phenomena:Light Snow
Clouds:Overcast 024 Hf
Expected CloudBase > 800 ft AGL from Temp-Dew spread
Ceiling2,400 ft
Temp01°C
Dew Point-1°C (87% RH)
AAT-2.2°C
QNH1022 hPa
Raw Report
KLRY 190955Z AUTO 27003KT 7SM -SN OVC024 01/M01 A3018 RMK AO2=

Extra information for KLRY:More info

Social comments